sensor_id;sensor_type;location;lat;lon;timestamp;P1;durP1;ratioP1;P2;durP2;ratioP2
4971;SDS011;2501;51.214;6.768;2022-09-12T00:01:21;61.15;;;31.30;;
4971;SDS011;2501;51.214;6.768;2022-09-12T00:03:51;70.22;;;32.28;;
4971;SDS011;2501;51.214;6.768;2022-09-12T00:06:23;61.80;;;30.92;;
4971;SDS011;2501;51.214;6.768;2022-09-12T00:08:53;61.97;;;30.07;;
4971;SDS011;2501;51.214;6.768;2022-09-12T00:11:23;69.60;;;32.42;;
4971;SDS011;2501;51.214;6.768;2022-09-12T00:13:57;62.17;;;31.33;;
4971;SDS011;2501;51.214;6.768;2022-09-12T00:16:27;56.77;;;30.70;;
4971;SDS011;2501;51.214;6.768;2022-09-12T00:18:57;58.90;;;31.25;;
4971;SDS011;2501;51.214;6.768;2022-09-12T00:21:25;59.45;;;30.23;;
4971;SDS011;2501;51.214;6.768;2022-09-12T00:23:55;61.85;;;29.55;;
4971;SDS011;2501;51.214;6.768;2022-09-12T00:26:23;63.90;;;29.50;;
4971;SDS011;2501;51.214;6.768;2022-09-12T00:28:51;62.53;;;30.70;;
4971;SDS011;2501;51.214;6.768;2022-09-12T00:31:23;59.45;;;29.80;;
4971;SDS011;2501;51.214;6.768;2022-09-12T00:33:54;61.65;;;29.48;;
4971;SDS011;2501;51.214;6.768;2022-09-12T00:36:25;65.00;;;31.60;;
4971;SDS011;2501;51.214;6.768;2022-09-12T00:38:54;61.50;;;30.55;;
4971;SDS011;2501;51.214;6.768;2022-09-12T00:41:24;63.63;;;30.20;;
4971;SDS011;2501;51.214;6.768;2022-09-12T00:43:54;62.03;;;30.40;;
4971;SDS011;2501;51.214;6.768;2022-09-12T00:46:28;56.45;;;28.63;;
4971;SDS011;2501;51.214;6.768;2022-09-12T00:49:02;53.07;;;29.23;;
4971;SDS011;2501;51.214;6.768;2022-09-12T00:51:34;58.72;;;30.30;;
4971;SDS011;2501;51.214;6.768;2022-09-12T00:54:05;55.53;;;29.20;;
4971;SDS011;2501;51.214;6.768;2022-09-12T00:56:37;64.68;;;30.60;;
4971;SDS011;2501;51.214;6.768;2022-09-12T00:59:10;52.97;;;27.35;;
4971;SDS011;2501;51.214;6.768;2022-09-12T01:01:46;54.83;;;27.52;;
4971;SDS011;2501;51.214;6.768;2022-09-12T01:04:17;57.20;;;28.92;;
4971;SDS011;2501;51.214;6.768;2022-09-12T01:06:47;64.90;;;29.98;;
4971;SDS011;2501;51.214;6.768;2022-09-12T01:09:19;53.42;;;28.63;;
4971;SDS011;2501;51.214;6.768;2022-09-12T01:11:50;58.40;;;28.67;;
4971;SDS011;2501;51.214;6.768;2022-09-12T01:14:20;56.08;;;27.95;;
4971;SDS011;2501;51.214;6.768;2022-09-12T01:16:51;62.20;;;28.40;;
4971;SDS011;2501;51.214;6.768;2022-09-12T01:19:27;55.30;;;28.45;;
4971;SDS011;2501;51.214;6.768;2022-09-12T01:22:20;63.60;;;27.80;;
4971;SDS011;2501;51.214;6.768;2022-09-12T01:25:07;57.10;;;29.00;;
4971;SDS011;2501;51.214;6.768;2022-09-12T01:27:50;51.13;;;27.80;;
4971;SDS011;2501;51.214;6.768;2022-09-12T01:30:44;57.92;;;28.73;;
4971;SDS011;2501;51.214;6.768;2022-09-12T01:33:24;53.33;;;27.42;;
4971;SDS011;2501;51.214;6.768;2022-09-12T01:39:00;55.65;;;27.75;;
4971;SDS011;2501;51.214;6.768;2022-09-12T01:41:35;54.65;;;27.30;;
4971;SDS011;2501;51.214;6.768;2022-09-12T01:44:13;48.95;;;25.65;;
4971;SDS011;2501;51.214;6.768;2022-09-12T01:46:52;55.85;;;26.50;;
4971;SDS011;2501;51.214;6.768;2022-09-12T01:49:23;60.93;;;27.50;;
4971;SDS011;2501;51.214;6.768;2022-09-12T01:51:57;59.97;;;28.15;;
4971;SDS011;2501;51.214;6.768;2022-09-12T01:54:32;53.47;;;27.80;;
4971;SDS011;2501;51.214;6.768;2022-09-12T01:57:09;50.83;;;26.20;;
4971;SDS011;2501;51.214;6.768;2022-09-12T01:59:44;53.30;;;26.27;;
4971;SDS011;2501;51.214;6.768;2022-09-12T02:02:20;50.40;;;26.08;;
4971;SDS011;2501;51.214;6.768;2022-09-12T02:04:52;49.73;;;25.70;;
4971;SDS011;2501;51.214;6.768;2022-09-12T02:07:28;53.65;;;27.63;;
4971;SDS011;2501;51.214;6.768;2022-09-12T02:10:04;47.92;;;26.23;;
4971;SDS011;2501;51.214;6.768;2022-09-12T02:12:38;49.75;;;26.08;;
4971;SDS011;2501;51.214;6.768;2022-09-12T02:15:11;52.80;;;26.63;;
4971;SDS011;2501;51.214;6.768;2022-09-12T02:17:45;49.03;;;25.30;;
4971;SDS011;2501;51.214;6.768;2022-09-12T02:20:18;50.50;;;26.02;;
4971;SDS011;2501;51.214;6.768;2022-09-12T02:22:50;51.70;;;26.83;;
4971;SDS011;2501;51.214;6.768;2022-09-12T02:25:20;54.05;;;26.27;;
4971;SDS011;2501;51.214;6.768;2022-09-12T02:27:52;48.37;;;24.80;;
4971;SDS011;2501;51.214;6.768;2022-09-12T02:30:25;52.92;;;26.60;;
4971;SDS011;2501;51.214;6.768;2022-09-12T02:33:00;54.80;;;26.85;;
4971;SDS011;2501;51.214;6.768;2022-09-12T02:35:34;53.70;;;26.73;;
4971;SDS011;2501;51.214;6.768;2022-09-12T02:38:12;47.50;;;25.88;;
4971;SDS011;2501;51.214;6.768;2022-09-12T02:40:47;45.53;;;25.27;;
4971;SDS011;2501;51.214;6.768;2022-09-12T02:43:15;49.85;;;25.65;;
4971;SDS011;2501;51.214;6.768;2022-09-12T02:45:44;55.30;;;26.58;;
4971;SDS011;2501;51.214;6.768;2022-09-12T02:48:15;50.45;;;25.30;;
4971;SDS011;2501;51.214;6.768;2022-09-12T02:50:48;50.22;;;25.05;;
4971;SDS011;2501;51.214;6.768;2022-09-12T02:53:16;47.30;;;24.07;;
4971;SDS011;2501;51.214;6.768;2022-09-12T02:55:45;48.35;;;25.45;;
4971;SDS011;2501;51.214;6.768;2022-09-12T02:58:15;51.35;;;25.15;;
4971;SDS011;2501;51.214;6.768;2022-09-12T03:00:48;49.40;;;25.05;;
4971;SDS011;2501;51.214;6.768;2022-09-12T03:03:29;53.33;;;26.60;;
4971;SDS011;2501;51.214;6.768;2022-09-12T03:06:12;50.40;;;24.90;;
4971;SDS011;2501;51.214;6.768;2022-09-12T03:08:50;50.35;;;25.77;;
4971;SDS011;2501;51.214;6.768;2022-09-12T03:11:31;44.97;;;23.75;;
4971;SDS011;2501;51.214;6.768;2022-09-12T03:14:14;47.03;;;25.40;;
4971;SDS011;2501;51.214;6.768;2022-09-12T03:16:51;47.03;;;24.73;;
4971;SDS011;2501;51.214;6.768;2022-09-12T03:19:28;46.20;;;23.73;;
4971;SDS011;2501;51.214;6.768;2022-09-12T03:22:02;44.63;;;23.65;;
4971;SDS011;2501;51.214;6.768;2022-09-12T03:24:39;46.45;;;23.60;;
4971;SDS011;2501;51.214;6.768;2022-09-12T03:27:16;43.05;;;23.58;;
4971;SDS011;2501;51.214;6.768;2022-09-12T03:29:48;46.45;;;23.88;;
4971;SDS011;2501;51.214;6.768;2022-09-12T03:32:17;42.90;;;24.02;;
4971;SDS011;2501;51.214;6.768;2022-09-12T03:34:48;46.67;;;23.77;;
4971;SDS011;2501;51.214;6.768;2022-09-12T03:37:17;45.20;;;22.93;;
4971;SDS011;2501;51.214;6.768;2022-09-12T03:39:45;41.00;;;22.50;;
4971;SDS011;2501;51.214;6.768;2022-09-12T03:42:14;43.40;;;22.10;;
4971;SDS011;2501;51.214;6.768;2022-09-12T03:44:42;44.70;;;23.13;;
4971;SDS011;2501;51.214;6.768;2022-09-12T03:47:10;41.60;;;22.63;;
4971;SDS011;2501;51.214;6.768;2022-09-12T03:49:39;41.23;;;23.00;;
4971;SDS011;2501;51.214;6.768;2022-09-12T03:52:09;43.63;;;22.75;;
4971;SDS011;2501;51.214;6.768;2022-09-12T03:54:38;45.65;;;22.77;;
4971;SDS011;2501;51.214;6.768;2022-09-12T03:57:06;47.33;;;22.75;;
4971;SDS011;2501;51.214;6.768;2022-09-12T03:59:35;39.13;;;21.95;;
4971;SDS011;2501;51.214;6.768;2022-09-12T04:02:03;48.15;;;22.77;;
4971;SDS011;2501;51.214;6.768;2022-09-12T04:04:33;41.67;;;21.00;;
4971;SDS011;2501;51.214;6.768;2022-09-12T04:07:02;40.58;;;21.38;;
4971;SDS011;2501;51.214;6.768;2022-09-12T04:09:33;44.95;;;21.55;;
4971;SDS011;2501;51.214;6.768;2022-09-12T04:12:02;39.42;;;21.08;;
4971;SDS011;2501;51.214;6.768;2022-09-12T04:14:32;36.40;;;21.13;;
4971;SDS011;2501;51.214;6.768;2022-09-12T04:17:01;41.55;;;21.48;;
4971;SDS011;2501;51.214;6.768;2022-09-12T04:19:29;36.90;;;20.20;;
4971;SDS011;2501;51.214;6.768;2022-09-12T04:21:58;38.15;;;20.90;;
4971;SDS011;2501;51.214;6.768;2022-09-12T04:24:26;37.47;;;19.92;;
4971;SDS011;2501;51.214;6.768;2022-09-12T04:26:57;38.75;;;20.38;;
4971;SDS011;2501;51.214;6.768;2022-09-12T04:29:25;34.13;;;20.10;;
4971;SDS011;2501;51.214;6.768;2022-09-12T04:31:55;39.58;;;20.05;;
4971;SDS011;2501;51.214;6.768;2022-09-12T04:34:24;39.70;;;19.67;;
4971;SDS011;2501;51.214;6.768;2022-09-12T04:36:52;36.80;;;21.00;;
4971;SDS011;2501;51.214;6.768;2022-09-12T04:39:21;39.63;;;20.13;;
4971;SDS011;2501;51.214;6.768;2022-09-12T04:41:50;35.72;;;19.77;;
4971;SDS011;2501;51.214;6.768;2022-09-12T04:44:21;38.58;;;19.80;;
4971;SDS011;2501;51.214;6.768;2022-09-12T04:46:49;40.80;;;19.80;;
4971;SDS011;2501;51.214;6.768;2022-09-12T04:49:18;31.27;;;18.30;;
4971;SDS011;2501;51.214;6.768;2022-09-12T04:51:46;35.53;;;19.80;;
4971;SDS011;2501;51.214;6.768;2022-09-12T04:54:15;37.33;;;19.10;;
4971;SDS011;2501;51.214;6.768;2022-09-12T04:56:46;37.70;;;18.23;;
4971;SDS011;2501;51.214;6.768;2022-09-12T04:59:17;33.40;;;19.55;;
4971;SDS011;2501;51.214;6.768;2022-09-12T05:01:49;34.37;;;18.73;;
4971;SDS011;2501;51.214;6.768;2022-09-12T05:04:17;32.83;;;18.80;;
4971;SDS011;2501;51.214;6.768;2022-09-12T05:06:46;34.78;;;18.52;;
4971;SDS011;2501;51.214;6.768;2022-09-12T05:09:14;33.67;;;18.55;;
4971;SDS011;2501;51.214;6.768;2022-09-12T05:11:43;35.47;;;17.95;;
4971;SDS011;2501;51.214;6.768;2022-09-12T05:14:12;37.78;;;18.80;;
4971;SDS011;2501;51.214;6.768;2022-09-12T05:16:43;28.83;;;17.30;;
4971;SDS011;2501;51.214;6.768;2022-09-12T05:19:11;29.27;;;16.90;;
4971;SDS011;2501;51.214;6.768;2022-09-12T05:21:40;29.67;;;17.42;;
4971;SDS011;2501;51.214;6.768;2022-09-12T05:24:08;30.23;;;16.42;;
4971;SDS011;2501;51.214;6.768;2022-09-12T05:26:38;25.15;;;15.50;;
4971;SDS011;2501;51.214;6.768;2022-09-12T05:29:06;26.23;;;16.13;;
4971;SDS011;2501;51.214;6.768;2022-09-12T05:31:34;36.33;;;20.90;;
4971;SDS011;2501;51.214;6.768;2022-09-12T05:34:06;32.43;;;19.77;;
4971;SDS011;2501;51.214;6.768;2022-09-12T05:36:35;35.55;;;21.20;;
4971;SDS011;2501;51.214;6.768;2022-09-12T05:39:04;25.80;;;16.92;;
4971;SDS011;2501;51.214;6.768;2022-09-12T05:41:33;31.20;;;16.00;;
4971;SDS011;2501;51.214;6.768;2022-09-12T05:44:03;29.67;;;16.35;;
4971;SDS011;2501;51.214;6.768;2022-09-12T05:46:35;23.55;;;15.32;;
4971;SDS011;2501;51.214;6.768;2022-09-12T05:49:08;22.02;;;14.20;;
4971;SDS011;2501;51.214;6.768;2022-09-12T05:51:38;24.42;;;14.50;;
4971;SDS011;2501;51.214;6.768;2022-09-12T05:54:09;23.23;;;14.88;;
4971;SDS011;2501;51.214;6.768;2022-09-12T05:56:40;23.92;;;13.68;;
4971;SDS011;2501;51.214;6.768;2022-09-12T05:59:10;27.58;;;15.85;;
4971;SDS011;2501;51.214;6.768;2022-09-12T06:01:40;21.13;;;14.00;;
4971;SDS011;2501;51.214;6.768;2022-09-12T06:04:12;22.25;;;14.63;;
4971;SDS011;2501;51.214;6.768;2022-09-12T06:06:41;22.90;;;13.53;;
4971;SDS011;2501;51.214;6.768;2022-09-12T06:09:11;24.48;;;14.65;;
4971;SDS011;2501;51.214;6.768;2022-09-12T06:11:41;25.77;;;14.23;;
4971;SDS011;2501;51.214;6.768;2022-09-12T06:14:11;24.40;;;13.90;;
4971;SDS011;2501;51.214;6.768;2022-09-12T06:16:43;25.02;;;14.90;;
4971;SDS011;2501;51.214;6.768;2022-09-12T06:19:15;22.00;;;13.73;;
4971;SDS011;2501;51.214;6.768;2022-09-12T06:21:45;20.88;;;13.57;;
4971;SDS011;2501;51.214;6.768;2022-09-12T06:24:17;24.23;;;15.60;;
4971;SDS011;2501;51.214;6.768;2022-09-12T06:26:47;20.60;;;12.57;;
4971;SDS011;2501;51.214;6.768;2022-09-12T06:29:16;22.83;;;13.63;;
4971;SDS011;2501;51.214;6.768;2022-09-12T06:31:45;19.60;;;12.23;;
4971;SDS011;2501;51.214;6.768;2022-09-12T06:34:16;22.08;;;13.52;;
4971;SDS011;2501;51.214;6.768;2022-09-12T06:36:45;18.67;;;12.80;;
4971;SDS011;2501;51.214;6.768;2022-09-12T06:39:16;21.55;;;12.20;;
4971;SDS011;2501;51.214;6.768;2022-09-12T06:41:45;21.45;;;12.32;;
4971;SDS011;2501;51.214;6.768;2022-09-12T06:44:15;19.77;;;12.07;;
4971;SDS011;2501;51.214;6.768;2022-09-12T06:46:45;22.17;;;13.00;;
4971;SDS011;2501;51.214;6.768;2022-09-12T06:49:16;19.05;;;12.85;;
4971;SDS011;2501;51.214;6.768;2022-09-12T06:51:47;21.45;;;12.63;;
4971;SDS011;2501;51.214;6.768;2022-09-12T06:54:15;22.95;;;12.85;;
4971;SDS011;2501;51.214;6.768;2022-09-12T06:56:44;20.45;;;12.65;;
4971;SDS011;2501;51.214;6.768;2022-09-12T06:59:12;28.90;;;18.38;;
4971;SDS011;2501;51.214;6.768;2022-09-12T07:01:41;23.25;;;12.73;;
4971;SDS011;2501;51.214;6.768;2022-09-12T07:04:09;20.30;;;13.00;;
4971;SDS011;2501;51.214;6.768;2022-09-12T07:06:41;20.63;;;12.65;;
4971;SDS011;2501;51.214;6.768;2022-09-12T07:09:10;20.50;;;11.85;;
4971;SDS011;2501;51.214;6.768;2022-09-12T07:11:41;19.90;;;12.40;;
4971;SDS011;2501;51.214;6.768;2022-09-12T07:14:10;21.10;;;12.00;;
4971;SDS011;2501;51.214;6.768;2022-09-12T07:16:40;17.27;;;11.90;;
4971;SDS011;2501;51.214;6.768;2022-09-12T07:19:09;21.88;;;13.13;;
4971;SDS011;2501;51.214;6.768;2022-09-12T07:21:40;19.88;;;11.75;;
4971;SDS011;2501;51.214;6.768;2022-09-12T07:24:09;21.45;;;13.10;;
4971;SDS011;2501;51.214;6.768;2022-09-12T07:26:38;18.40;;;13.82;;
4971;SDS011;2501;51.214;6.768;2022-09-12T07:29:11;23.92;;;13.50;;
4971;SDS011;2501;51.214;6.768;2022-09-12T07:31:42;22.80;;;13.70;;
4971;SDS011;2501;51.214;6.768;2022-09-12T07:34:11;22.80;;;12.93;;
4971;SDS011;2501;51.214;6.768;2022-09-12T07:36:44;24.93;;;14.13;;
4971;SDS011;2501;51.214;6.768;2022-09-12T07:39:12;25.05;;;14.13;;
4971;SDS011;2501;51.214;6.768;2022-09-12T07:41:41;27.15;;;14.45;;
4971;SDS011;2501;51.214;6.768;2022-09-12T07:44:09;19.52;;;13.32;;
4971;SDS011;2501;51.214;6.768;2022-09-12T07:46:37;26.45;;;13.27;;
4971;SDS011;2501;51.214;6.768;2022-09-12T07:49:08;24.42;;;13.88;;
4971;SDS011;2501;51.214;6.768;2022-09-12T07:51:39;24.98;;;13.75;;
4971;SDS011;2501;51.214;6.768;2022-09-12T07:54:10;21.80;;;14.00;;
4971;SDS011;2501;51.214;6.768;2022-09-12T07:56:38;26.63;;;13.48;;
4971;SDS011;2501;51.214;6.768;2022-09-12T07:59:07;20.75;;;13.20;;
4971;SDS011;2501;51.214;6.768;2022-09-12T08:01:35;23.55;;;13.15;;
4971;SDS011;2501;51.214;6.768;2022-09-12T08:04:04;25.17;;;12.98;;
4971;SDS011;2501;51.214;6.768;2022-09-12T08:06:32;21.33;;;13.30;;
4971;SDS011;2501;51.214;6.768;2022-09-12T08:09:03;25.27;;;13.18;;
4971;SDS011;2501;51.214;6.768;2022-09-12T08:11:34;28.17;;;15.65;;
4971;SDS011;2501;51.214;6.768;2022-09-12T08:14:03;24.97;;;14.00;;
4971;SDS011;2501;51.214;6.768;2022-09-12T08:16:32;22.90;;;13.10;;
4971;SDS011;2501;51.214;6.768;2022-09-12T08:19:02;23.92;;;12.20;;
4971;SDS011;2501;51.214;6.768;2022-09-12T08:21:31;16.65;;;12.10;;
4971;SDS011;2501;51.214;6.768;2022-09-12T08:24:12;18.63;;;11.68;;
4971;SDS011;2501;51.214;6.768;2022-09-12T08:26:44;22.08;;;12.95;;
4971;SDS011;2501;51.214;6.768;2022-09-12T08:29:12;22.77;;;13.02;;
4971;SDS011;2501;51.214;6.768;2022-09-12T08:31:41;21.00;;;12.60;;
4971;SDS011;2501;51.214;6.768;2022-09-12T08:34:10;25.25;;;13.23;;
4971;SDS011;2501;51.214;6.768;2022-09-12T08:36:41;22.95;;;12.52;;
4971;SDS011;2501;51.214;6.768;2022-09-12T08:39:10;20.52;;;13.63;;
4971;SDS011;2501;51.214;6.768;2022-09-12T08:41:40;19.40;;;12.50;;
4971;SDS011;2501;51.214;6.768;2022-09-12T08:44:22;21.05;;;12.30;;
4971;SDS011;2501;51.214;6.768;2022-09-12T08:47:10;20.50;;;11.48;;
4971;SDS011;2501;51.214;6.768;2022-09-12T08:49:49;23.02;;;11.32;;
4971;SDS011;2501;51.214;6.768;2022-09-12T08:52:28;15.40;;;10.00;;
4971;SDS011;2501;51.214;6.768;2022-09-12T08:55:01;16.27;;;10.55;;
4971;SDS011;2501;51.214;6.768;2022-09-12T08:57:32;18.52;;;11.40;;
4971;SDS011;2501;51.214;6.768;2022-09-12T09:00:05;16.45;;;10.75;;
4971;SDS011;2501;51.214;6.768;2022-09-12T09:02:46;17.50;;;10.60;;
4971;SDS011;2501;51.214;6.768;2022-09-12T09:05:41;19.87;;;11.20;;
4971;SDS011;2501;51.214;6.768;2022-09-12T09:08:21;17.85;;;10.85;;
4971;SDS011;2501;51.214;6.768;2022-09-12T09:11:03;15.70;;;10.48;;
4971;SDS011;2501;51.214;6.768;2022-09-12T09:13:48;16.55;;;10.55;;
4971;SDS011;2501;51.214;6.768;2022-09-12T09:16:43;19.58;;;11.07;;
4971;SDS011;2501;51.214;6.768;2022-09-12T09:19:16;18.17;;;10.93;;
4971;SDS011;2501;51.214;6.768;2022-09-12T09:21:49;18.15;;;10.23;;
4971;SDS011;2501;51.214;6.768;2022-09-12T09:24:20;22.73;;;11.07;;
4971;SDS011;2501;51.214;6.768;2022-09-12T09:26:54;25.50;;;12.90;;
4971;SDS011;2501;51.214;6.768;2022-09-12T09:29:25;19.00;;;11.93;;
4971;SDS011;2501;51.214;6.768;2022-09-12T09:31:59;17.90;;;11.00;;
4971;SDS011;2501;51.214;6.768;2022-09-12T09:34:37;19.40;;;10.52;;
4971;SDS011;2501;51.214;6.768;2022-09-12T09:37:07;17.60;;;9.95;;
4971;SDS011;2501;51.214;6.768;2022-09-12T09:39:48;17.70;;;9.85;;
4971;SDS011;2501;51.214;6.768;2022-09-12T09:42:27;18.17;;;10.13;;
4971;SDS011;2501;51.214;6.768;2022-09-12T09:45:10;15.70;;;10.30;;
4971;SDS011;2501;51.214;6.768;2022-09-12T09:47:45;26.85;;;14.15;;
4971;SDS011;2501;51.214;6.768;2022-09-12T09:50:18;15.73;;;10.80;;
4971;SDS011;2501;51.214;6.768;2022-09-12T09:52:47;16.05;;;10.65;;
4971;SDS011;2501;51.214;6.768;2022-09-12T09:55:18;15.52;;;10.20;;
4971;SDS011;2501;51.214;6.768;2022-09-12T09:57:50;18.33;;;10.20;;
4971;SDS011;2501;51.214;6.768;2022-09-12T10:00:20;18.83;;;11.48;;
4971;SDS011;2501;51.214;6.768;2022-09-12T10:03:00;27.15;;;14.57;;
4971;SDS011;2501;51.214;6.768;2022-09-12T10:05:32;22.88;;;12.00;;
4971;SDS011;2501;51.214;6.768;2022-09-12T10:08:03;19.25;;;11.52;;
4971;SDS011;2501;51.214;6.768;2022-09-12T10:10:34;18.25;;;11.43;;
4971;SDS011;2501;51.214;6.768;2022-09-12T10:13:06;19.48;;;10.10;;
4971;SDS011;2501;51.214;6.768;2022-09-12T10:15:36;17.40;;;10.30;;
4971;SDS011;2501;51.214;6.768;2022-09-12T10:18:07;13.80;;;9.07;;
4971;SDS011;2501;51.214;6.768;2022-09-12T10:20:36;12.48;;;9.50;;
4971;SDS011;2501;51.214;6.768;2022-09-12T10:23:17;17.75;;;9.30;;
4971;SDS011;2501;51.214;6.768;2022-09-12T10:26:01;17.23;;;9.85;;
4971;SDS011;2501;51.214;6.768;2022-09-12T10:28:33;19.33;;;8.05;;
4971;SDS011;2501;51.214;6.768;2022-09-12T10:31:04;16.38;;;7.63;;
4971;SDS011;2501;51.214;6.768;2022-09-12T10:33:39;9.45;;;7.75;;
4971;SDS011;2501;51.214;6.768;2022-09-12T10:36:11;15.52;;;11.27;;
4971;SDS011;2501;51.214;6.768;2022-09-12T10:38:40;12.73;;;7.43;;
4971;SDS011;2501;51.214;6.768;2022-09-12T10:41:17;9.68;;;6.90;;
4971;SDS011;2501;51.214;6.768;2022-09-12T10:43:47;12.95;;;9.02;;
4971;SDS011;2501;51.214;6.768;2022-09-12T10:46:19;8.27;;;7.38;;
4971;SDS011;2501;51.214;6.768;2022-09-12T10:51:47;14.68;;;7.38;;
4971;SDS011;2501;51.214;6.768;2022-09-12T10:54:17;8.02;;;6.18;;
4971;SDS011;2501;51.214;6.768;2022-09-12T10:59:46;11.57;;;8.00;;
4971;SDS011;2501;51.214;6.768;2022-09-12T11:02:38;16.23;;;5.73;;
4971;SDS011;2501;51.214;6.768;2022-09-12T11:05:20;6.30;;;4.15;;
4971;SDS011;2501;51.214;6.768;2022-09-12T11:08:03;3.97;;;3.78;;
4971;SDS011;2501;51.214;6.768;2022-09-12T11:10:41;7.38;;;5.22;;
4971;SDS011;2501;51.214;6.768;2022-09-12T11:13:22;4.82;;;4.43;;
4971;SDS011;2501;51.214;6.768;2022-09-12T11:16:05;4.28;;;3.80;;
4971;SDS011;2501;51.214;6.768;2022-09-12T11:21:43;4.80;;;4.40;;
4971;SDS011;2501;51.214;6.768;2022-09-12T11:24:25;4.50;;;4.10;;
4971;SDS011;2501;51.214;6.768;2022-09-12T11:27:17;4.43;;;3.40;;
4971;SDS011;2501;51.214;6.768;2022-09-12T11:30:10;5.80;;;3.42;;
4971;SDS011;2501;51.214;6.768;2022-09-12T11:32:42;4.38;;;4.07;;
4971;SDS011;2501;51.214;6.768;2022-09-12T11:35:25;4.82;;;3.90;;
4971;SDS011;2501;51.214;6.768;2022-09-12T11:38:04;5.57;;;4.20;;
4971;SDS011;2501;51.214;6.768;2022-09-12T11:40:56;3.90;;;3.60;;
4971;SDS011;2501;51.214;6.768;2022-09-12T11:43:31;3.60;;;3.22;;
4971;SDS011;2501;51.214;6.768;2022-09-12T11:46:07;6.13;;;3.90;;
4971;SDS011;2501;51.214;6.768;2022-09-12T11:48:43;4.60;;;3.80;;
4971;SDS011;2501;51.214;6.768;2022-09-12T11:51:16;4.13;;;3.63;;
4971;SDS011;2501;51.214;6.768;2022-09-12T11:53:53;12.27;;;5.10;;
4971;SDS011;2501;51.214;6.768;2022-09-12T11:56:30;4.68;;;4.00;;
4971;SDS011;2501;51.214;6.768;2022-09-12T11:59:02;4.50;;;2.90;;
4971;SDS011;2501;51.214;6.768;2022-09-12T12:01:38;4.00;;;3.60;;
4971;SDS011;2501;51.214;6.768;2022-09-12T12:04:11;4.97;;;3.60;;
4971;SDS011;2501;51.214;6.768;2022-09-12T12:06:46;5.10;;;4.28;;
4971;SDS011;2501;51.214;6.768;2022-09-12T12:09:21;4.00;;;3.60;;
4971;SDS011;2501;51.214;6.768;2022-09-12T12:11:51;3.75;;;3.50;;
4971;SDS011;2501;51.214;6.768;2022-09-12T12:14:24;3.65;;;3.33;;
4971;SDS011;2501;51.214;6.768;2022-09-12T12:16:58;4.13;;;3.83;;
4971;SDS011;2501;51.214;6.768;2022-09-12T12:19:30;6.28;;;3.53;;
4971;SDS011;2501;51.214;6.768;2022-09-12T12:22:04;5.50;;;3.45;;
4971;SDS011;2501;51.214;6.768;2022-09-12T12:24:37;4.22;;;3.72;;
4971;SDS011;2501;51.214;6.768;2022-09-12T12:27:44;3.40;;;3.20;;
4971;SDS011;2501;51.214;6.768;2022-09-12T12:36:37;3.60;;;3.40;;
4971;SDS011;2501;51.214;6.768;2022-09-12T12:42:11;3.40;;;3.00;;
4971;SDS011;2501;51.214;6.768;2022-09-12T12:48:35;5.97;;;3.05;;
4971;SDS011;2501;51.214;6.768;2022-09-12T12:51:22;3.83;;;2.90;;
4971;SDS011;2501;51.214;6.768;2022-09-12T12:53:56;3.67;;;3.35;;
4971;SDS011;2501;51.214;6.768;2022-09-12T12:56:33;4.45;;;2.95;;
4971;SDS011;2501;51.214;6.768;2022-09-12T12:59:18;3.10;;;2.80;;
4971;SDS011;2501;51.214;6.768;2022-09-12T13:01:52;3.70;;;3.40;;
4971;SDS011;2501;51.214;6.768;2022-09-12T13:04:25;3.50;;;3.20;;
4971;SDS011;2501;51.214;6.768;2022-09-12T13:06:57;3.10;;;2.90;;
4971;SDS011;2501;51.214;6.768;2022-09-12T13:09:30;3.10;;;2.90;;
4971;SDS011;2501;51.214;6.768;2022-09-12T13:12:02;3.35;;;2.97;;
4971;SDS011;2501;51.214;6.768;2022-09-12T13:14:49;2.95;;;2.65;;
4971;SDS011;2501;51.214;6.768;2022-09-12T13:17:27;5.70;;;2.70;;
4971;SDS011;2501;51.214;6.768;2022-09-12T13:22:50;2.97;;;2.78;;
4971;SDS011;2501;51.214;6.768;2022-09-12T13:25:20;4.28;;;2.97;;
4971;SDS011;2501;51.214;6.768;2022-09-12T13:27:58;3.00;;;2.80;;
4971;SDS011;2501;51.214;6.768;2022-09-12T13:30:33;4.13;;;3.60;;
4971;SDS011;2501;51.214;6.768;2022-09-12T13:39:01;6.00;;;3.00;;
4971;SDS011;2501;51.214;6.768;2022-09-12T13:41:45;3.05;;;2.80;;
4971;SDS011;2501;51.214;6.768;2022-09-12T13:44:29;2.80;;;2.60;;
4971;SDS011;2501;51.214;6.768;2022-09-12T13:47:07;2.95;;;2.75;;
4971;SDS011;2501;51.214;6.768;2022-09-12T13:49:41;3.67;;;2.40;;
4971;SDS011;2501;51.214;6.768;2022-09-12T13:52:14;2.90;;;2.70;;
4971;SDS011;2501;51.214;6.768;2022-09-12T13:54:46;6.10;;;2.60;;
4971;SDS011;2501;51.214;6.768;2022-09-12T13:57:26;2.80;;;2.60;;
4971;SDS011;2501;51.214;6.768;2022-09-12T14:00:03;4.13;;;2.80;;
4971;SDS011;2501;51.214;6.768;2022-09-12T14:02:38;2.97;;;2.70;;
4971;SDS011;2501;51.214;6.768;2022-09-12T14:05:10;3.15;;;3.00;;
4971;SDS011;2501;51.214;6.768;2022-09-12T14:07:39;3.27;;;3.07;;
4971;SDS011;2501;51.214;6.768;2022-09-12T14:10:20;5.55;;;4.93;;
4971;SDS011;2501;51.214;6.768;2022-09-12T14:12:52;2.93;;;2.60;;
4971;SDS011;2501;51.214;6.768;2022-09-12T14:15:23;3.55;;;2.90;;
4971;SDS011;2501;51.214;6.768;2022-09-12T14:17:57;2.57;;;2.43;;
4971;SDS011;2501;51.214;6.768;2022-09-12T14:20:27;2.42;;;2.30;;
4971;SDS011;2501;51.214;6.768;2022-09-12T14:22:58;3.80;;;3.50;;
4971;SDS011;2501;51.214;6.768;2022-09-12T14:25:31;2.83;;;2.67;;
4971;SDS011;2501;51.214;6.768;2022-09-12T14:28:05;3.13;;;2.83;;
4971;SDS011;2501;51.214;6.768;2022-09-12T14:30:40;3.10;;;2.85;;
4971;SDS011;2501;51.214;6.768;2022-09-12T14:33:18;4.72;;;3.97;;
4971;SDS011;2501;51.214;6.768;2022-09-12T14:35:48;2.70;;;2.50;;
4971;SDS011;2501;51.214;6.768;2022-09-12T14:38:20;7.40;;;3.10;;
4971;SDS011;2501;51.214;6.768;2022-09-12T14:40:57;2.90;;;2.70;;
4971;SDS011;2501;51.214;6.768;2022-09-12T14:43:28;3.25;;;3.00;;
4971;SDS011;2501;51.214;6.768;2022-09-12T14:45:58;3.70;;;3.40;;
4971;SDS011;2501;51.214;6.768;2022-09-12T14:48:32;5.03;;;3.50;;
4971;SDS011;2501;51.214;6.768;2022-09-12T14:51:04;3.40;;;3.20;;
4971;SDS011;2501;51.214;6.768;2022-09-12T14:53:34;8.05;;;3.70;;
4971;SDS011;2501;51.214;6.768;2022-09-12T14:56:05;4.57;;;3.97;;
4971;SDS011;2501;51.214;6.768;2022-09-12T14:58:36;4.30;;;3.00;;
4971;SDS011;2501;51.214;6.768;2022-09-12T15:01:20;2.85;;;2.60;;
4971;SDS011;2501;51.214;6.768;2022-09-12T15:03:53;6.10;;;3.53;;
4971;SDS011;2501;51.214;6.768;2022-09-12T15:06:24;3.60;;;3.30;;
4971;SDS011;2501;51.214;6.768;2022-09-12T15:08:56;6.80;;;3.10;;
4971;SDS011;2501;51.214;6.768;2022-09-12T15:11:27;5.55;;;3.17;;
4971;SDS011;2501;51.214;6.768;2022-09-12T15:13:57;5.80;;;4.30;;
4971;SDS011;2501;51.214;6.768;2022-09-12T15:16:33;4.22;;;3.20;;
4971;SDS011;2501;51.214;6.768;2022-09-12T15:19:08;3.30;;;3.10;;
4971;SDS011;2501;51.214;6.768;2022-09-12T15:21:36;4.20;;;3.80;;
4971;SDS011;2501;51.214;6.768;2022-09-12T15:24:06;9.05;;;3.70;;
4971;SDS011;2501;51.214;6.768;2022-09-12T15:26:36;7.20;;;3.40;;
4971;SDS011;2501;51.214;6.768;2022-09-12T15:29:04;4.30;;;3.65;;
4971;SDS011;2501;51.214;6.768;2022-09-12T15:31:32;4.68;;;4.25;;
4971;SDS011;2501;51.214;6.768;2022-09-12T15:34:01;4.50;;;4.10;;
4971;SDS011;2501;51.214;6.768;2022-09-12T15:36:33;6.13;;;4.07;;
4971;SDS011;2501;51.214;6.768;2022-09-12T15:39:01;4.90;;;3.42;;
4971;SDS011;2501;51.214;6.768;2022-09-12T15:41:30;6.60;;;3.90;;
4971;SDS011;2501;51.214;6.768;2022-09-12T15:44:01;5.78;;;3.28;;
4971;SDS011;2501;51.214;6.768;2022-09-12T15:46:30;3.92;;;3.63;;
4971;SDS011;2501;51.214;6.768;2022-09-12T15:48:58;3.40;;;3.10;;
4971;SDS011;2501;51.214;6.768;2022-09-12T15:51:27;4.32;;;3.00;;
4971;SDS011;2501;51.214;6.768;2022-09-12T15:53:59;3.65;;;3.33;;
4971;SDS011;2501;51.214;6.768;2022-09-12T15:56:28;5.60;;;3.30;;
4971;SDS011;2501;51.214;6.768;2022-09-12T15:58:57;3.30;;;3.00;;
4971;SDS011;2501;51.214;6.768;2022-09-12T16:01:26;5.80;;;5.28;;
4971;SDS011;2501;51.214;6.768;2022-09-12T16:03:55;4.70;;;4.25;;